Time;durP1;ratioP1;P1;durP2;ratioP2;P2;SDS_P1;SDS_P2;PMS_P1;PMS_P2;Temp;Humidity;BMP_temperature;BMP_pressure;BME280_temperature;BME280_humidity;BME280_pressure;Samples;Min_cycle;Max_cycle;Signal;HPM_P1;HPM_P2
2023/03/18 00:00:43;;;;;;;7.00;4.07;;;;;;;6.45;nan;98472.38;5028897;28;20073;-63
2023/03/18 00:03:09;;;;;;;11.33;4.77;;;;;;;5.91;nan;98478.53;4992751;28;20049;-63
2023/03/18 00:05:35;;;;;;;5.40;4.13;;;;;;;5.61;nan;98478.56;5008819;28;20074;-63
2023/03/18 00:08:03;;;;;;;5.53;4.23;;;;;;;5.38;nan;98476.06;5008189;28;20576;-62
2023/03/18 00:10:30;;;;;;;6.93;4.13;;;;;;;5.22;nan;98467.59;5007579;28;20072;-62
2023/03/18 00:12:56;;;;;;;6.73;4.23;;;;;;;5.11;nan;98464.22;5004138;28;20042;-61
2023/03/18 00:15:21;;;;;;;6.87;5.07;;;;;;;4.98;nan;98473.53;5008456;28;20045;-62
2023/03/18 00:17:47;;;;;;;7.80;3.73;;;;;;;4.99;nan;98476.94;5007235;28;20631;-62
2023/03/18 00:20:15;;;;;;;6.23;4.77;;;;;;;4.81;nan;98466.75;5008204;28;20058;-62
2023/03/18 00:22:42;;;;;;;4.73;3.73;;;;;;;4.73;nan;98481.13;5002036;28;20085;-62
2023/03/18 00:25:10;;;;;;;4.83;4.03;;;;;;;4.62;nan;98482.81;5005152;28;20041;-62
2023/03/18 00:27:37;;;;;;;5.90;4.77;;;;;;;4.33;nan;98442.13;5007724;28;20099;-61
2023/03/18 00:30:04;;;;;;;7.03;3.90;;;;;;;4.37;nan;98456.53;5007959;28;20049;-62
2023/03/18 00:32:30;;;;;;;7.83;3.60;;;;;;;4.55;nan;98475.16;5008456;28;20134;-62
2023/03/18 00:34:56;;;;;;;6.67;3.80;;;;;;;4.57;nan;98475.19;5009579;28;20124;-61
2023/03/18 00:37:29;;;;;;;7.03;3.83;;;;;;;4.51;nan;98472.63;5008012;28;20751;-66
2023/03/18 00:40:03;;;;;;;5.55;3.40;;;;;;;4.56;nan;98469.25;5006096;28;20046;-61
2023/03/18 00:42:36;;;;;;;6.50;3.93;;;;;;;4.51;nan;98470.06;5005041;28;20045;-62
2023/03/18 00:45:03;;;;;;;7.60;4.00;;;;;;;4.50;nan;98469.22;5008434;28;20049;-62
2023/03/18 00:47:29;;;;;;;5.90;3.93;;;;;;;4.38;nan;98470.88;5010125;28;20289;-62
2023/03/18 00:49:55;;;;;;;8.63;4.03;;;;;;;4.23;nan;98458.16;5027496;28;20073;-62
2023/03/18 00:52:21;;;;;;;8.03;4.50;;;;;;;4.33;nan;98459.91;5003918;28;20053;-62
2023/03/18 00:54:47;;;;;;;5.83;3.73;;;;;;;4.24;nan;98457.31;5012347;28;20060;-62
2023/03/18 00:57:13;;;;;;;5.93;4.00;;;;;;;4.24;nan;98465.78;5011723;28;20541;-61
2023/03/18 00:59:39;;;;;;;8.37;3.97;;;;;;;4.19;nan;98470.00;5011073;28;20139;-61
2023/03/18 01:02:05;;;;;;;4.80;3.80;;;;;;;4.19;nan;98459.00;5020346;28;20060;-61
2023/03/18 01:04:31;;;;;;;7.73;3.70;;;;;;;4.29;nan;98469.16;5031052;28;20048;-62
2023/03/18 01:06:57;;;;;;;6.67;4.20;;;;;;;4.09;nan;98446.28;5032914;28;20128;-63
2023/03/18 01:09:23;;;;;;;6.27;3.60;;;;;;;4.07;nan;98462.34;5029782;28;20067;-63
2023/03/18 01:11:48;;;;;;;5.40;4.33;;;;;;;4.04;nan;98469.91;5028786;28;20061;-63
2023/03/18 01:14:14;;;;;;;7.10;3.60;;;;;;;4.00;nan;98464.00;5031577;28;20516;-62
2023/03/18 01:16:40;;;;;;;5.50;3.83;;;;;;;3.96;nan;98464.81;5031066;28;20054;-62
2023/03/18 01:19:06;;;;;;;5.83;4.33;;;;;;;3.94;nan;98465.66;5031246;28;20421;-62
2023/03/18 01:21:32;;;;;;;7.47;4.17;;;;;;;3.71;nan;98442.72;5024676;28;20041;-62
2023/03/18 01:23:59;;;;;;;6.40;3.67;;;;;;;3.91;nan;98455.47;5032213;28;20040;-62
2023/03/18 01:26:26;;;;;;;6.00;4.07;;;;;;;3.97;nan;98460.59;5031656;28;20051;-62
2023/03/18 01:28:53;;;;;;;7.20;3.43;;;;;;;3.81;nan;98452.09;5031071;28;20516;-63
2023/03/18 01:31:19;;;;;;;6.80;3.97;;;;;;;3.74;nan;98450.34;5032355;28;20080;-62
2023/03/18 01:33:46;;;;;;;9.17;4.17;;;;;;;3.63;nan;98427.50;5039541;28;20582;-65
2023/03/18 01:36:12;;;;;;;6.43;3.90;;;;;;;3.69;nan;98447.78;5028325;28;20071;-62
2023/03/18 01:38:39;;;;;;;5.10;4.00;;;;;;;3.70;nan;98443.56;5027932;28;20149;-62
2023/03/18 01:41:11;;;;;;;8.33;3.83;;;;;;;3.75;nan;98446.97;5029682;28;20040;-65
2023/03/18 01:43:40;;;;;;;5.97;4.37;;;;;;;3.60;nan;98452.81;5031605;28;20086;-62
2023/03/18 01:46:30;;;;;;;7.93;4.60;;;;;;;3.51;nan;98452.78;5046209;28;20048;-62
2023/03/18 01:49:01;;;;;;;7.10;4.50;;;;;;;3.53;nan;98455.28;5039978;28;20519;-62
2023/03/18 01:51:28;;;;;;;6.10;3.60;;;;;;;3.55;nan;98443.50;5045210;28;20049;-62
2023/03/18 01:53:56;;;;;;;7.77;3.90;;;;;;;3.44;nan;98440.88;5030519;28;20041;-62
2023/03/18 01:56:22;;;;;;;5.63;3.87;;;;;;;3.37;nan;98445.91;5028740;28;20400;-61
2023/03/18 01:58:54;;;;;;;4.93;4.10;;;;;;;3.39;nan;98442.56;5029167;28;20123;-62
2023/03/18 02:01:52;;;;;;;7.10;4.30;;;;;;;3.51;nan;98452.78;5031657;28;20476;-61
2023/03/18 02:04:22;;;;;;;6.57;3.70;;;;;;;3.48;nan;98449.38;4941078;28;20057;-61
2023/03/18 02:06:47;;;;;;;5.57;3.53;;;;;;;3.48;nan;98451.91;4938634;28;20046;-61
2023/03/18 02:09:13;;;;;;;6.83;3.50;;;;;;;3.33;nan;98417.16;4958859;28;20043;-62
2023/03/18 02:11:48;;;;;;;6.27;3.30;;;;;;;3.46;nan;98462.03;4949741;28;20130;-62
2023/03/18 02:14:19;;;;;;;6.90;3.87;;;;;;;3.53;nan;98470.50;4943655;28;20056;-62
2023/03/18 02:16:51;;;;;;;9.07;3.30;;;;;;;3.39;nan;98449.31;4958358;28;20190;-62
2023/03/18 02:19:44;;;;;;;6.73;3.80;;;;;;;3.37;nan;98450.97;4956904;28;20127;-62
2023/03/18 02:22:22;;;;;;;4.57;3.00;;;;;;;3.49;nan;98468.78;4949162;28;20047;-61
2023/03/18 02:24:58;;;;;;;5.37;3.27;;;;;;;3.42;nan;98470.44;4943607;28;20506;-62
2023/03/18 02:27:26;;;;;;;7.20;3.80;;;;;;;3.48;nan;98480.59;4942771;28;20517;-62
2023/03/18 02:30:00;;;;;;;6.00;4.20;;;;;;;3.38;nan;98473.78;4942072;28;20117;-61
2023/03/18 02:32:30;;;;;;;9.87;4.17;;;;;;;3.57;nan;98474.75;4934433;28;20042;-62
2023/03/18 02:35:00;;;;;;;6.33;3.57;;;;;;;3.50;nan;98457.81;4943217;28;20217;-62
2023/03/18 02:37:26;;;;;;;6.23;3.73;;;;;;;3.41;nan;98452.69;4940997;28;20259;-62
2023/03/18 02:39:52;;;;;;;5.17;3.97;;;;;;;3.62;nan;98470.56;4991639;28;20564;-62
2023/03/18 02:42:31;;;;;;;6.87;3.77;;;;;;;3.54;nan;98455.31;5029142;28;20060;-61
2023/03/18 02:44:59;;;;;;;4.70;4.03;;;;;;;3.61;nan;98468.84;5027947;28;20052;-61
2023/03/18 02:47:42;;;;;;;9.40;4.27;;;;;;;3.56;nan;98461.25;5035127;28;20123;-61
2023/03/18 02:50:08;;;;;;;8.33;4.07;;;;;;;3.49;nan;98448.50;5028456;28;20172;-62
2023/03/18 02:52:34;;;;;;;5.57;3.37;;;;;;;3.47;nan;98461.19;5030809;28;20049;-62
2023/03/18 02:55:01;;;;;;;5.07;4.47;;;;;;;3.46;nan;98446.81;5028507;28;20099;-61
2023/03/18 02:57:27;;;;;;;5.90;3.77;;;;;;;3.64;nan;98477.34;5033184;28;20049;-62
2023/03/18 02:59:54;;;;;;;7.80;3.47;;;;;;;3.53;nan;98458.69;5029653;28;20264;-62
2023/03/18 03:02:20;;;;;;;6.90;3.20;;;;;;;3.60;nan;98482.38;5030678;28;20053;-61
2023/03/18 03:04:46;;;;;;;6.80;3.80;;;;;;;3.41;nan;98461.13;5029359;28;20049;-62
2023/03/18 03:07:13;;;;;;;5.13;3.03;;;;;;;3.45;nan;98470.47;5036696;28;20345;-62
2023/03/18 03:09:46;;;;;;;5.93;3.70;;;;;;;3.48;nan;98467.13;5037663;28;20631;-62
2023/03/18 03:12:13;;;;;;;5.40;3.10;;;;;;;3.50;nan;98478.09;5043894;28;20037;-62
2023/03/18 03:14:44;;;;;;;6.30;3.57;;;;;;;3.37;nan;98468.72;5016867;28;20049;-62
2023/03/18 03:17:11;;;;;;;6.57;3.63;;;;;;;3.56;nan;98509.41;5036245;28;20041;-62
2023/03/18 03:19:37;;;;;;;7.20;3.27;;;;;;;3.37;nan;98476.31;5029244;28;20080;-61
2023/03/18 03:22:02;;;;;;;4.13;3.47;;;;;;;3.47;nan;98516.94;5028139;28;20516;-62
2023/03/18 03:24:29;;;;;;;7.23;3.50;;;;;;;3.47;nan;98524.53;5028128;28;20475;-62
2023/03/18 03:26:54;;;;;;;4.53;3.67;;;;;;;3.38;nan;98506.72;5035041;28;20041;-61
2023/03/18 03:29:20;;;;;;;6.03;3.10;;;;;;;3.43;nan;98530.44;5030329;28;20045;-62
2023/03/18 03:31:48;;;;;;;5.93;3.17;;;;;;;3.37;nan;98532.91;5028815;28;20032;-62
2023/03/18 03:34:14;;;;;;;5.27;3.37;;;;;;;3.32;nan;98533.69;5034082;28;20057;-60
2023/03/18 03:36:41;;;;;;;5.27;3.40;;;;;;;3.31;nan;98548.03;5030873;28;20076;-61
2023/03/18 03:39:07;;;;;;;5.03;3.17;;;;;;;3.40;nan;98550.66;5029763;28;20045;-61
2023/03/18 03:41:34;;;;;;;5.93;3.60;;;;;;;3.14;nan;98539.47;5032832;28;20506;-62
2023/03/18 03:44:00;;;;;;;7.53;4.10;;;;;;;3.16;nan;98563.97;5027539;28;20123;-61
2023/03/18 03:46:26;;;;;;;4.83;3.53;;;;;;;3.00;nan;98556.22;5027808;28;20045;-61
2023/03/18 03:48:52;;;;;;;7.40;3.17;;;;;;;3.06;nan;98571.44;5024954;28;20445;-60
2023/03/18 03:51:18;;;;;;;3.57;3.07;;;;;;;3.09;nan;98569.81;5033049;28;20055;-61
2023/03/18 03:53:45;;;;;;;4.43;3.23;;;;;;;3.04;nan;98578.19;5028805;28;20413;-62
2023/03/18 03:56:11;;;;;;;8.93;4.87;;;;;;;2.99;nan;98584.91;5034091;28;20131;-61
2023/03/18 03:58:37;;;;;;;4.33;2.93;;;;;;;2.94;nan;98589.91;5027941;28;20504;-62
2023/03/18 04:01:05;;;;;;;4.57;3.03;;;;;;;3.36;nan;98598.75;5028731;28;20037;-62
2023/03/18 04:03:32;;;;;;;5.20;3.77;;;;;;;3.79;nan;98599.94;5032229;28;20127;-62
2023/03/18 04:05:58;;;;;;;6.03;3.23;;;;;;;3.93;nan;98588.22;5027331;28;20045;-62
2023/03/18 04:08:27;;;;;;;4.43;3.37;;;;;;;3.81;nan;98598.28;5017083;28;20060;-61
2023/03/18 04:10:53;;;;;;;8.73;4.03;;;;;;;3.54;nan;98560.91;5028348;28;20041;-64
2023/03/18 04:13:19;;;;;;;4.90;3.80;;;;;;;4.07;nan;98604.38;5031091;28;20412;-61
2023/03/18 04:15:46;;;;;;;8.47;3.60;;;;;;;3.80;nan;98583.91;5030489;28;20126;-60
2023/03/18 04:18:16;;;;;;;5.90;3.03;;;;;;;3.97;nan;98600.09;5036819;28;20542;-60
2023/03/18 04:20:43;;;;;;;5.67;3.33;;;;;;;3.91;nan;98602.56;5030686;28;20037;-61
2023/03/18 04:23:17;;;;;;;;;;;;;;;3.77;nan;98599.09;5043239;28;20092;-62
2023/03/18 04:25:43;;;;;;;6.73;3.43;;;;;;;3.74;nan;98599.06;5037911;28;20019;-66
2023/03/18 04:28:09;;;;;;;5.90;3.47;;;;;;;3.53;nan;98603.13;5039994;28;20041;-61
2023/03/18 04:30:36;;;;;;;5.63;3.53;;;;;;;3.46;nan;98568.44;5045379;28;20055;-61
2023/03/18 04:33:06;;;;;;;4.67;3.57;;;;;;;3.66;nan;98604.06;5038349;28;20045;-63
2023/03/18 04:35:32;;;;;;;4.77;3.20;;;;;;;3.29;nan;98590.25;5039536;28;20045;-61
2023/03/18 04:37:59;;;;;;;7.00;4.27;;;;;;;3.34;nan;98587.78;5038052;28;20208;-64
2023/03/18 04:40:25;;;;;;;4.53;3.70;;;;;;;3.59;nan;98589.66;5035955;28;20114;-58
2023/03/18 04:42:52;;;;;;;7.97;3.93;;;;;;;3.65;nan;98593.09;5034555;28;20528;-61
2023/03/18 04:45:23;;;;;;;8.87;3.40;;;;;;;3.43;nan;98608.13;5048636;28;20103;-60
2023/03/18 04:47:50;;;;;;;7.90;4.50;;;;;;;3.04;nan;98591.72;5032657;28;20508;-61
2023/03/18 04:50:16;;;;;;;6.70;3.77;;;;;;;3.11;nan;98621.31;5043526;28;20052;-60
2023/03/18 04:52:43;;;;;;;8.23;3.47;;;;;;;2.90;nan;98623.63;5034640;28;20049;-60
2023/03/18 04:55:15;;;;;;;4.60;3.67;;;;;;;2.68;nan;98625.06;5036469;28;20500;-60
2023/03/18 04:57:42;;;;;;;3.73;3.20;;;;;;;2.47;nan;98624.78;5033877;28;20045;-60
2023/03/18 05:00:14;;;;;;;6.07;3.73;;;;;;;2.44;nan;98619.69;5036874;28;20041;-61
2023/03/18 05:02:41;;;;;;;4.97;3.20;;;;;;;2.19;nan;98610.94;5044734;28;20057;-61
2023/03/18 05:05:07;;;;;;;8.77;3.40;;;;;;;2.16;nan;98625.22;5029463;28;20053;-64
2023/03/18 05:07:38;;;;;;;7.03;4.20;;;;;;;2.08;nan;98629.34;5043503;28;20044;-62
2023/03/18 05:10:10;;;;;;;9.93;4.17;;;;;;;1.94;nan;98620.69;5042086;28;20079;-61
2023/03/18 05:12:37;;;;;;;6.17;3.80;;;;;;;1.94;nan;98630.78;5032850;28;20066;-61
2023/03/18 05:15:05;;;;;;;6.23;3.90;;;;;;;1.90;nan;98637.50;5050284;28;20045;-62
2023/03/18 05:17:31;;;;;;;6.83;4.33;;;;;;;1.84;nan;98655.94;5028797;28;20167;-60
2023/03/18 05:20:00;;;;;;;6.90;3.53;;;;;;;1.76;nan;98654.09;5033946;28;20041;-61
2023/03/18 05:22:27;;;;;;;6.30;3.50;;;;;;;1.67;nan;98654.81;5035406;28;20485;-60
2023/03/18 05:25:11;;;;;;;23.80;9.27;;;;;;;1.62;nan;98663.13;5040541;28;20419;-62
2023/03/18 05:27:39;;;;;;;19.60;9.80;;;;;;;1.57;nan;98654.66;5032949;28;20052;-62
2023/03/18 05:30:12;;;;;;;10.87;5.90;;;;;;;1.41;nan;98643.41;5030699;28;20040;-61
2023/03/18 05:32:44;;;;;;;11.73;5.13;;;;;;;1.54;nan;98667.19;5022765;28;20041;-62
2023/03/18 05:35:11;;;;;;;11.07;5.80;;;;;;;1.50;nan;98653.66;5033400;28;20037;-61
2023/03/18 05:37:48;;;;;;;9.67;5.90;;;;;;;1.57;nan;98649.59;5043731;28;20029;-63
2023/03/18 05:40:15;;;;;;;6.77;4.33;;;;;;;1.74;nan;98669.22;5029484;28;20102;-60
2023/03/18 05:42:49;;;;;;;6.90;4.82;;;;;;;1.78;nan;98675.22;5045620;28;20037;-60
2023/03/18 05:45:15;;;;;;;9.07;5.67;;;;;;;1.78;nan;98676.03;5031168;28;20098;-64
2023/03/18 05:47:49;;;;;;;7.97;5.80;;;;;;;1.78;nan;98680.28;5029241;28;20063;-59
2023/03/18 05:50:46;;;;;;;9.63;6.63;;;;;;;1.72;nan;98647.31;5030330;28;20492;-60
2023/03/18 05:53:17;;;;;;;10.67;5.23;;;;;;;1.94;nan;98681.34;5014542;28;20619;-62
2023/03/18 05:55:45;;;;;;;8.30;5.20;;;;;;;1.90;nan;98674.56;5036638;28;20044;-60
2023/03/18 05:58:11;;;;;;;11.67;6.20;;;;;;;2.04;nan;98684.03;5027585;28;20037;-60
2023/03/18 06:00:40;;;;;;;9.10;6.67;;;;;;;2.10;nan;98689.19;5032033;28;20053;-60
2023/03/18 06:03:06;;;;;;;8.83;5.97;;;;;;;2.09;nan;98677.38;5031285;28;20064;-62
2023/03/18 06:05:32;;;;;;;8.57;5.50;;;;;;;2.20;nan;98687.66;5029291;28;20041;-61
2023/03/18 06:07:59;;;;;;;10.53;5.97;;;;;;;2.06;nan;98699.25;5033620;28;20219;-62
2023/03/18 06:10:26;;;;;;;12.90;8.00;;;;;;;2.15;nan;98701.91;5025317;28;20523;-60
2023/03/18 06:12:54;;;;;;;13.33;7.43;;;;;;;1.98;nan;98683.09;5025540;28;20063;-62
2023/03/18 06:15:21;;;;;;;13.43;7.37;;;;;;;2.10;nan;98674.03;5030345;28;20487;-62
2023/03/18 06:17:47;;;;;;;12.27;8.17;;;;;;;2.13;nan;98674.06;5029623;28;20099;-62
2023/03/18 06:20:14;;;;;;;13.83;7.70;;;;;;;2.38;nan;98703.09;5029393;28;20500;-60
2023/03/18 06:22:42;;;;;;;12.47;6.47;;;;;;;2.45;nan;98704.91;5028586;28;20041;-61
2023/03/18 06:25:09;;;;;;;9.77;6.13;;;;;;;2.60;nan;98699.19;5027655;28;20057;-61
2023/03/18 06:27:37;;;;;;;10.63;6.77;;;;;;;2.71;nan;98707.78;5018176;28;20461;-61
2023/03/18 06:30:05;;;;;;;10.67;5.97;;;;;;;2.78;nan;98703.63;5026701;28;20407;-61
2023/03/18 06:32:32;;;;;;;8.57;5.43;;;;;;;2.92;nan;98690.34;5042639;28;20064;-61
2023/03/18 06:34:59;;;;;;;8.43;5.23;;;;;;;2.96;nan;98676.03;5027233;28;20037;-61
2023/03/18 06:37:27;;;;;;;7.73;5.33;;;;;;;3.26;nan;98713.50;5030763;28;20049;-61
2023/03/18 06:39:53;;;;;;;7.73;5.33;;;;;;;3.20;nan;98692.34;5015379;28;20057;-61
2023/03/18 06:42:19;;;;;;;10.67;5.10;;;;;;;3.38;nan;98696.75;5027895;28;20099;-61
2023/03/18 06:45:03;;;;;;;8.60;4.60;;;;;;;3.67;nan;98700.44;5028767;28;20045;-60
2023/03/18 06:47:41;;;;;;;5.83;4.53;;;;;;;3.91;nan;98716.69;5018803;28;20037;-62
2023/03/18 06:50:09;;;;;;;9.23;5.30;;;;;;;3.92;nan;98677.81;5028836;28;20476;-62
2023/03/18 06:52:36;;;;;;;10.10;4.33;;;;;;;4.18;nan;98704.22;5029778;28;20485;-62
2023/03/18 06:55:09;;;;;;;5.40;4.70;;;;;;;4.37;nan;98723.81;5033779;28;20072;-62
2023/03/18 06:57:37;;;;;;;5.43;4.77;;;;;;;4.17;nan;98709.28;5026720;28;20088;-61
2023/03/18 07:00:05;;;;;;;6.93;4.87;;;;;;;4.21;nan;98709.31;5026152;28;20056;-62
2023/03/18 07:02:30;;;;;;;8.50;5.23;;;;;;;4.32;nan;98722.97;5026783;28;20672;-62
2023/03/18 07:04:59;;;;;;;8.73;4.97;;;;;;;4.40;nan;98728.09;5029586;28;20483;-62
2023/03/18 07:07:26;;;;;;;9.03;5.10;;;;;;;4.54;nan;98734.94;5026340;28;20041;-60
2023/03/18 07:09:53;;;;;;;8.67;4.97;;;;;;;4.66;nan;98713.00;5024588;28;20064;-63
2023/03/18 07:12:19;;;;;;;8.70;5.53;;;;;;;4.97;nan;98709.78;5025161;28;20044;-61
2023/03/18 07:14:45;;;;;;;7.77;5.27;;;;;;;5.32;nan;98737.88;5027597;28;20041;-61
2023/03/18 07:17:13;;;;;;;8.47;6.00;;;;;;;5.48;nan;98719.28;5024786;28;20041;-61
2023/03/18 07:19:40;;;;;;;11.73;5.80;;;;;;;5.74;nan;98737.13;5035394;28;20053;-61
2023/03/18 07:22:06;;;;;;;12.00;5.97;;;;;;;5.71;nan;98739.69;5026218;28;20049;-61
2023/03/18 07:24:32;;;;;;;7.70;5.20;;;;;;;6.02;nan;98738.06;5043898;28;20072;-60
2023/03/18 07:26:58;;;;;;;10.40;5.43;;;;;;;6.18;nan;98735.53;5025912;28;20084;-61
2023/03/18 07:29:24;;;;;;;7.27;5.87;;;;;;;6.52;nan;98726.16;5025122;28;20041;-59
2023/03/18 07:31:52;;;;;;;8.63;5.30;;;;;;;6.72;nan;98728.66;5034284;28;20046;-60
2023/03/18 07:34:20;;;;;;;8.97;5.67;;;;;;;6.99;nan;98731.16;5009715;28;20044;-61
2023/03/18 07:36:46;;;;;;;7.87;5.37;;;;;;;7.16;nan;98741.28;5025437;28;20047;-62
2023/03/18 07:39:12;;;;;;;10.73;5.97;;;;;;;7.24;nan;98745.50;5028973;28;20046;-61
2023/03/18 07:41:37;;;;;;;9.57;6.00;;;;;;;7.39;nan;98744.56;5024036;28;20049;-61
2023/03/18 07:44:06;;;;;;;8.23;6.00;;;;;;;7.37;nan;98743.75;5025605;28;20480;-62
2023/03/18 07:46:32;;;;;;;7.03;5.13;;;;;;;7.56;nan;98742.78;5026919;28;20087;-61
2023/03/18 07:48:58;;;;;;;6.27;4.93;;;;;;;7.75;nan;98754.63;5028183;28;20084;-61
2023/03/18 07:51:24;;;;;;;9.10;5.73;;;;;;;7.77;nan;98729.06;5028534;28;20453;-62
2023/03/18 07:53:50;;;;;;;9.83;5.90;;;;;;;7.88;nan;98752.84;5027905;28;20041;-61
2023/03/18 07:56:16;;;;;;;8.57;5.40;;;;;;;7.97;nan;98760.44;5026176;28;20049;-61
2023/03/18 07:58:42;;;;;;;7.73;5.20;;;;;;;8.08;nan;98752.69;5025255;28;20049;-61
2023/03/18 08:01:08;;;;;;;10.57;6.00;;;;;;;8.12;nan;98762.88;5024287;28;20144;-62
2023/03/18 08:03:34;;;;;;;11.03;6.13;;;;;;;8.16;nan;98733.03;5027558;28;20106;-60
2023/03/18 08:06:01;;;;;;;6.60;5.27;;;;;;;8.31;nan;98753.41;5027597;28;20068;-61
2023/03/18 08:08:27;;;;;;;10.73;5.73;;;;;;;8.44;nan;98760.13;5027462;28;20076;-63
2023/03/18 08:11:01;;;;;;;9.73;5.67;;;;;;;8.38;nan;98738.88;5033059;28;20037;-58
2023/03/18 08:13:27;;;;;;;7.67;5.83;;;;;;;8.63;nan;98751.41;5023067;28;20048;-61
2023/03/18 08:15:54;;;;;;;8.87;5.83;;;;;;;8.65;nan;98754.81;5024112;28;20041;-61
2023/03/18 08:18:21;;;;;;;9.67;6.37;;;;;;;8.83;nan;98763.97;5030018;28;20124;-59
2023/03/18 08:20:47;;;;;;;10.93;6.03;;;;;;;8.78;nan;98739.34;5025077;28;20454;-59
2023/03/18 08:23:13;;;;;;;12.60;6.97;;;;;;;8.78;nan;98757.25;5023418;28;20041;-60
2023/03/18 08:25:40;;;;;;;9.70;6.70;;;;;;;8.82;nan;98764.03;5026745;28;20047;-61
2023/03/18 08:28:06;;;;;;;9.83;6.67;;;;;;;8.87;nan;98767.38;5027920;28;20054;-58
2023/03/18 08:30:33;;;;;;;9.93;5.87;;;;;;;8.82;nan;98746.97;5030109;28;20068;-61
2023/03/18 08:32:59;;;;;;;10.20;5.63;;;;;;;9.10;nan;98767.97;5031053;28;20073;-62
2023/03/18 08:35:25;;;;;;;10.30;6.87;;;;;;;8.99;nan;98741.69;5022897;28;20504;-60
2023/03/18 08:37:52;;;;;;;9.37;6.00;;;;;;;9.02;nan;98756.97;5025211;28;20041;-61
2023/03/18 08:40:19;;;;;;;8.17;6.33;;;;;;;9.27;nan;98763.50;5023965;28;20052;-59
2023/03/18 08:42:45;;;;;;;9.83;6.57;;;;;;;9.29;nan;98768.63;5023243;28;20040;-60
2023/03/18 08:45:12;;;;;;;15.43;5.87;;;;;;;9.37;nan;98769.38;5026441;28;20155;-60
2023/03/18 08:47:38;;;;;;;9.75;5.90;;;;;;;9.43;nan;98769.28;5026734;28;20091;-59
2023/03/18 08:50:04;;;;;;;8.37;6.57;;;;;;;9.47;nan;98753.03;5025249;28;20041;-60
2023/03/18 08:52:31;;;;;;;11.50;6.27;;;;;;;9.54;nan;98759.78;5025265;28;20378;-59
2023/03/18 08:54:57;;;;;;;9.90;6.30;;;;;;;9.78;nan;98774.81;5024573;28;20508;-60
2023/03/18 08:57:26;;;;;;;11.35;6.82;;;;;;;9.64;nan;98748.53;5027255;28;20041;-61
2023/03/18 08:59:52;;;;;;;9.52;6.68;;;;;;;9.76;nan;98752.66;5027277;28;20654;-60
2023/03/18 09:02:18;;;;;;;7.75;6.38;;;;;;;10.13;nan;98755.53;5026407;28;20049;-60
2023/03/18 09:04:44;;;;;;;8.95;6.25;;;;;;;10.39;nan;98750.88;5023498;28;20598;-61
2023/03/18 09:07:12;;;;;;;9.68;5.57;;;;;;;10.63;nan;98735.09;5023922;28;20095;-59
2023/03/18 09:09:38;;;;;;;6.50;5.72;;;;;;;10.87;nan;98746.59;5032041;28;20418;-60
2023/03/18 09:12:05;;;;;;;8.70;6.38;;;;;;;11.03;nan;98744.63;5028971;28;20091;-59
2023/03/18 09:14:31;;;;;;;9.07;6.85;;;;;;;11.00;nan;98741.22;5039978;28;20037;-60
2023/03/18 09:16:58;;;;;;;9.93;5.88;;;;;;;11.04;nan;98718.06;5029549;28;20075;-59
2023/03/18 09:19:25;;;;;;;7.22;6.00;;;;;;;11.37;nan;98733.63;5027158;28;20116;-61
2023/03/18 09:21:51;;;;;;;9.35;6.65;;;;;;;11.16;nan;98725.56;5028517;28;20508;-63
2023/03/18 09:24:16;;;;;;;7.72;5.35;;;;;;;11.52;nan;98732.50;5030385;28;20087;-60
2023/03/18 09:26:42;;;;;;;8.27;6.63;;;;;;;11.67;nan;98736.47;5025948;28;20110;-61
2023/03/18 09:29:09;;;;;;;7.93;6.70;;;;;;;11.59;nan;98734.03;5028084;28;20157;-60
2023/03/18 09:31:34;;;;;;;;;;;;;;;11.72;nan;98732.06;5030032;28;20046;-60
2023/03/18 09:34:00;;;;;;;;;;;;;;;11.70;nan;98737.25;5027311;28;19951;-60
2023/03/18 09:36:26;;;;;;;;;;;;;;;11.66;nan;98730.47;5028433;28;20368;-60
2023/03/18 09:38:51;;;;;;;;;;;;;;;11.88;nan;98728.31;5031675;28;20388;-59
2023/03/18 09:41:26;;;;;;;;;;;;;;;11.95;nan;98729.84;5027694;28;19941;-59
2023/03/18 09:43:52;;;;;;;;;;;;;;;12.02;nan;98735.69;5027162;28;19944;-59
2023/03/18 09:46:17;;;;;;;;;;;;;;;12.12;nan;98724.31;5030227;28;19942;-61
2023/03/18 09:48:55;;;;;;;;;;;;;;;12.11;nan;98720.06;5027187;28;19993;-60
2023/03/18 09:51:28;;;;;;;;;;;;;;;12.50;nan;98724.22;5027767;28;19945;-60
2023/03/18 09:54:03;;;;;;;;;;;;;;;12.40;nan;98720.19;5027607;28;20298;-61
2023/03/18 09:56:31;;;;;;;;;;;;;;;12.60;nan;98709.41;5024037;28;19981;-61
2023/03/18 09:59:15;;;;;;;;;;;;;;;12.65;nan;98718.69;5019632;28;20032;-70
2023/03/18 10:01:42;;;;;;;;;;;;;;;12.80;nan;98713.16;5031764;28;19957;-59
2023/03/18 10:04:17;;;;;;;;;;;;;;;12.67;nan;98718.66;5029018;28;20372;-59
2023/03/18 10:06:47;;;;;;;;;;;;;;;12.50;nan;98713.09;5029254;28;20882;-58
2023/03/18 10:09:20;;;;;;;;;;;;;;;12.42;nan;98709.88;5030107;28;20411;-59
2023/03/18 10:11:47;;;;;;;;;;;;;;;12.49;nan;98709.69;5026171;28;19938;-59
2023/03/18 10:14:32;;;;;;;;;;;;;;;12.56;nan;98711.19;5026334;28;19939;-60
2023/03/18 10:17:13;;;;;;;;;;;;;;;12.65;nan;98712.69;5029285;28;19938;-62
2023/03/18 10:19:45;;;;;;;;;;;;;;;12.43;nan;98701.28;5027829;28;20029;-60
2023/03/18 10:22:29;;;;;;;;;;;;;;;12.59;nan;98708.56;5031250;28;20203;-60
2023/03/18 10:24:58;;;;;;;;;;;;;;;12.55;nan;98711.25;5026959;28;19940;-59
2023/03/18 10:27:43;;;;;;;;;;;;;;;12.62;nan;98711.06;5028113;28;19939;-58
2023/03/18 10:30:21;;;;;;;;;;;;;;;12.67;nan;98711.78;5030709;28;19941;-58
2023/03/18 10:32:59;;;;;;;;;;;;;;;12.64;nan;98705.88;5029619;28;19964;-60
2023/03/18 10:35:47;;;;;;;12.68;10.05;;;;;;;12.70;nan;98705.69;5026284;28;20645;-58
2023/03/18 10:38:31;;;;;;;11.40;8.00;;;;;;;12.81;nan;98701.94;5027452;28;20067;-58
2023/03/18 10:40:57;;;;;;;295.37;206.07;;;;;;;12.89;nan;98693.22;5027141;28;20587;-58
2023/03/18 10:43:28;;;;;;;406.52;262.77;;;;;;;12.98;nan;98705.81;5026160;28;20428;-56
2023/03/18 10:46:06;;;;;;;388.20;236.00;;;;;;;13.13;nan;98710.56;5028181;28;20073;-58
2023/03/18 10:48:37;;;;;;;408.30;272.57;;;;;;;13.19;nan;98708.69;5027631;28;20794;-57
2023/03/18 10:51:02;;;;;;;416.37;268.17;;;;;;;13.30;nan;98703.22;5027754;28;20287;-58
2023/03/18 10:53:44;;;;;;;404.97;240.40;;;;;;;13.33;nan;98692.81;5024996;28;20511;-56
2023/03/18 10:56:12;;;;;;;384.23;235.93;;;;;;;13.42;nan;98700.28;5027444;28;20865;-56
2023/03/18 10:58:40;;;;;;;406.80;257.03;;;;;;;13.36;nan;98699.63;5026163;28;20149;-57
2023/03/18 11:01:13;;;;;;;413.10;263.90;;;;;;;13.34;nan;98691.09;5027438;28;20040;-58
2023/03/18 11:03:44;;;;;;;395.23;222.87;;;;;;;13.39;nan;98687.50;5028340;28;20095;-55
2023/03/18 11:06:18;;;;;;;405.67;250.70;;;;;;;13.42;nan;98689.97;5028355;28;20055;-57
2023/03/18 11:08:47;;;;;;;410.67;272.30;;;;;;;13.36;nan;98685.03;5027510;28;20292;-60
2023/03/18 11:11:26;;;;;;;414.37;271.40;;;;;;;13.50;nan;98679.44;5026532;28;20044;-60
2023/03/18 11:13:55;;;;;;;420.60;276.93;;;;;;;13.62;nan;98684.25;5028096;28;20030;-58
2023/03/18 11:16:36;;;;;;;427.97;298.40;;;;;;;13.59;nan;98686.91;5045066;28;20124;-60
2023/03/18 11:19:28;;;;;;;424.37;299.07;;;;;;;13.70;nan;98677.13;5029740;28;20544;-60
2023/03/18 11:22:15;;;;;;;430.97;283.13;;;;;;;13.80;nan;98664.78;5028584;28;20060;-60
2023/03/18 11:24:43;;;;;;;447.07;342.13;;;;;;;13.94;nan;98672.94;5025658;28;20099;-58
2023/03/18 11:27:13;;;;;;;429.10;290.63;;;;;;;13.90;nan;98673.91;5025683;28;20048;-59
2023/03/18 11:29:42;;;;;;;432.20;290.80;;;;;;;13.88;nan;98678.25;5028759;28;20053;-60
2023/03/18 11:32:24;;;;;;;430.43;288.27;;;;;;;13.83;nan;98646.66;5027562;28;20041;-59
2023/03/18 11:35:07;;;;;;;435.97;319.80;;;;;;;14.06;nan;98662.22;5026508;28;20041;-58
2023/03/18 11:37:36;;;;;;;442.57;336.20;;;;;;;14.13;nan;98661.16;5026675;28;20116;-59
2023/03/18 11:40:27;;;;;;;443.73;341.03;;;;;;;14.12;nan;98655.16;5025329;28;20476;-64
2023/03/18 11:42:58;;;;;;;465.80;414.57;;;;;;;14.06;nan;98646.75;5021164;28;20053;-59
2023/03/18 11:45:33;;;;;;;483.27;430.73;;;;;;;14.08;nan;98639.81;5025551;28;20144;-61
2023/03/18 11:47:59;;;;;;;481.15;428.63;;;;;;;14.22;nan;98647.94;5026723;28;20041;-58
2023/03/18 11:50:41;;;;;;;465.03;411.93;;;;;;;14.02;nan;98643.44;5026602;28;20434;-60
2023/03/18 11:53:28;;;;;;;485.30;432.47;;;;;;;14.31;nan;98637.31;5027280;28;20496;-59
2023/03/18 11:56:05;;;;;;;470.93;408.57;;;;;;;14.37;nan;98634.56;5026878;28;20385;-61
2023/03/18 11:59:00;;;;;;;474.87;409.87;;;;;;;14.34;nan;98637.19;5026925;28;20709;-60
2023/03/18 12:01:51;;;;;;;460.03;397.13;;;;;;;14.24;nan;98611.78;5020130;28;21079;-58
2023/03/18 12:04:29;;;;;;;459.70;367.50;;;;;;;14.33;nan;98638.13;5028053;28;20079;-61
2023/03/18 12:07:18;;;;;;;457.37;389.83;;;;;;;14.27;nan;98627.16;5026876;28;20472;-60
2023/03/18 12:09:49;;;;;;;498.57;445.67;;;;;;;14.24;nan;98628.09;5026411;28;20091;-59